| time (UTC) | temp C | wind direction | speed KPH | gust KPH | rain 1hr cm | rain 24hr cm | rain mn cm | humidity % | barometer mb |
| 20260503200006 | 26 | 284 | 4.8 | 16.1 | 0.00 | 0.00 | 0.00 | 55 | 1010.7 |
| 20260503195007 | 26 | 310 | 8.0 | 16.1 | 0.00 | 0.00 | 0.00 | 53 | 1010.7 |
| 20260503194006 | 26 | 297 | 9.7 | 16.1 | 0.00 | 0.00 | 0.00 | 52 | 1010.7 |
| 20260503193006 | 25 | 294 | 8.0 | 19.3 | 0.00 | 0.00 | 0.00 | 54 | 1011.0 |
| 20260503192007 | 25 | 299 | 6.4 | 20.9 | 0.00 | 0.00 | 0.00 | 57 | 1011.0 |
| 20260503191006 | 25 | 327 | 4.8 | 16.1 | 0.00 | 0.00 | 0.00 | 55 | 1011.2 |
| 20260503190006 | 25 | 305 | 4.8 | 14.5 | 0.00 | 0.00 | 0.00 | 61 | 1011.2 |
| 20260503185007 | 24 | 305 | 8.0 | 14.5 | 0.00 | 0.00 | 0.00 | 66 | 1011.4 |
| 20260503184006 | 24 | 305 | 4.8 | 19.3 | 0.00 | 0.00 | 0.00 | 58 | 1011.5 |
| 20260503183006 | 23 | 301 | 9.7 | 19.3 | 0.00 | 0.00 | 0.00 | 58 | 1011.5 |
| 20260503182006 | 23 | 288 | 4.8 | 16.1 | 0.00 | 0.00 | 0.00 | 61 | 1011.6 |
| 20260503181007 | 23 | 328 | 9.7 | 19.3 | 0.00 | 0.00 | 0.00 | 65 | 1011.8 |
| 20260503180007 | 22 | 311 | 4.8 | 16.1 | 0.00 | 0.00 | 0.00 | 66 | 1011.8 |
| 20260503175006 | 22 | 292 | 8.0 | 16.1 | 0.00 | 0.00 | 0.00 | 63 | 1011.8 |
| 20260503174006 | 22 | 282 | 4.8 | 11.3 | 0.00 | 0.00 | 0.00 | 65 | 1011.9 |
| 20260503173006 | 21 | 308 | 4.8 | 12.9 | 0.00 | 0.00 | 0.00 | 66 | 1012.0 |
| 20260503172006 | 21 | 294 | 8.0 | 19.3 | 0.00 | 0.00 | 0.00 | 62 | 1012.0 |
| 20260503171006 | 21 | 291 | 8.0 | 14.5 | 0.00 | 0.00 | 0.00 | 62 | 1012.1 |
| 20260503151007 | 11 | 324 | 0.0 | 0.0 | 0.00 | 0.00 | 0.00 | 97 | 1012.9 |
| 20260503131005 | 8 | 324 | 0.0 | 0.0 | 0.00 | 0.00 | 0.00 | 95 | 1012.6 |
| 20260503081006 | 12 | 324 | 0.0 | 0.0 | 0.00 | 0.00 | 0.00 | 93 | 1013.0 |
| 20260503072005 | 12 | 324 | 0.0 | 0.0 | 0.00 | 0.00 | 0.00 | 92 | 1012.7 |
| 20260503055005 | 14 | 324 | 0.0 | 0.0 | 0.00 | 0.00 | 0.00 | 88 | 1012.6 |
| 20260503054005 | 14 | 324 | 0.0 | 0.0 | 0.00 | 0.00 | 0.00 | 87 | 1012.7 |
| 20260503053006 | 15 | 324 | 0.0 | 0.0 | 0.00 | 0.00 | 0.00 | 87 | 1012.7 |
| 20260503052006 | 15 | 324 | 0.0 | 0.0 | 0.00 | 0.00 | 0.00 | 86 | 1012.7 |
| 20260503051005 | 15 | 324 | 0.0 | 0.0 | 0.00 | 0.00 | 0.00 | 85 | 1012.6 |
| 20260503050005 | 15 | 324 | 0.0 | 0.0 | 0.00 | 0.00 | 0.00 | 83 | 1012.6 |
| 20260503045004 | 16 | 324 | 0.0 | 0.0 | 0.00 | 0.00 | 0.00 | 83 | 1012.6 |
| 20260503044004 | 16 | 324 | 0.0 | 0.0 | 0.00 | 0.00 | 0.00 | 81 | 1012.5 |
| 20260503043005 | 16 | 324 | 0.0 | 0.0 | 0.00 | 0.00 | 0.00 | 80 | 1012.5 |
| 20260503042004 | 17 | 324 | 0.0 | 1.6 | 0.00 | 0.00 | 0.00 | 78 | 1011.6 |
| 20260503041005 | 17 | 324 | 0.0 | 1.6 | 0.00 | 0.00 | 0.00 | 77 | 1011.6 |
| 20260503040004 | 18 | 324 | 0.0 | 4.8 | 0.00 | 0.00 | 0.00 | 75 | 1011.6 |
| 20260503035009 | 18 | 324 | 1.6 | 4.8 | 0.00 | 0.00 | 0.00 | 72 | 1011.6 |
| 20260503034008 | 19 | 324 | 1.6 | 4.8 | 0.00 | 0.00 | 0.00 | 71 | 1011.6 |
| 20260503033008 | 20 | 337 | 3.2 | 4.8 | 0.00 | 0.00 | 0.00 | 69 | 1011.4 |
| 20260503032008 | 20 | 311 | 1.6 | 4.8 | 0.00 | 0.00 | 0.00 | 68 | 1011.2 |
| 20260503031007 | 21 | 305 | 3.2 | 9.7 | 0.00 | 0.00 | 0.00 | 66 | 1011.2 |
| 20260503030007 | 21 | 324 | 4.8 | 11.3 | 0.00 | 0.00 | 0.00 | 66 | 1010.8 |
| 20260503025008 | 21 | 271 | 3.2 | 16.1 | 0.00 | 0.00 | 0.00 | 66 | 1010.8 |
| 20260503023007 | 22 | 304 | 9.7 | 22.5 | 0.00 | 0.00 | 0.00 | 64 | 1010.6 |
| 20260503022007 | 22 | 297 | 8.0 | 19.3 | 0.00 | 0.00 | 0.00 | 63 | 1010.6 |
| 20260503020007 | 23 | 278 | 9.7 | 19.3 | 0.00 | 0.00 | 0.00 | 62 | 1010.6 |
| 20260503015007 | 23 | 286 | 9.7 | 19.3 | 0.00 | 0.00 | 0.00 | 63 | 1010.6 |
| 20260503014008 | 23 | 290 | 6.4 | 16.1 | 0.00 | 0.00 | 0.00 | 62 | 1010.6 |
| 20260503013007 | 23 | 288 | 9.7 | 22.5 | 0.00 | 0.00 | 0.00 | 61 | 1010.6 |
| 20260503012007 | 23 | 275 | 8.0 | 20.9 | 0.00 | 0.00 | 0.00 | 62 | 1010.6 |
| 20260503011007 | 23 | 318 | 9.7 | 20.9 | 0.00 | 0.00 | 0.00 | 62 | 1010.7 |
| 20260503005007 | 23 | 283 | 8.0 | 19.3 | 0.00 | 0.00 | 0.00 | 63 | 1010.7 |
| 20260503004007 | 23 | 257 | 6.4 | 22.5 | 0.00 | 0.00 | 0.00 | 63 | 1010.7 |
| 20260503003008 | 24 | 295 | 11.3 | 20.9 | 0.00 | 0.00 | 0.00 | 63 | 1011.0 |
| 20260503002006 | 24 | 302 | 8.0 | 19.3 | 0.00 | 0.00 | 0.00 | 62 | 1011.0 |
| 20260502235007 | 24 | 273 | 12.9 | 27.4 | 0.00 | 0.00 | 0.00 | 61 | 1011.0 |
| 20260502234007 | 24 | 305 | 11.3 | 19.3 | 0.00 | 0.00 | 0.00 | 60 | 1011.0 |
| 20260502233006 | 24 | 287 | 12.9 | 25.7 | 0.00 | 0.00 | 0.00 | 60 | 1011.7 |
| 20260502232007 | 24 | 291 | 8.0 | 25.7 | 0.00 | 0.00 | 0.00 | 60 | 1011.7 |
| 20260502230007 | 25 | 282 | 16.1 | 20.9 | 0.00 | 0.00 | 0.00 | 59 | 1011.7 |
| 20260502225007 | 25 | 298 | 9.7 | 20.9 | 0.00 | 0.00 | 0.00 | 58 | 1011.7 |
| 20260502224007 | 25 | 277 | 9.7 | 19.3 | 0.00 | 0.00 | 0.00 | 58 | 1011.9 |
| 20260502223006 | 24 | 289 | 8.0 | 19.3 | 0.00 | 0.00 | 0.00 | 63 | 1012.0 |
| 20260502222006 | 24 | 290 | 8.0 | 19.3 | 0.00 | 0.00 | 0.00 | 59 | 1012.0 |
| 20260502221007 | 24 | 329 | 9.7 | 22.5 | 0.00 | 0.00 | 0.00 | 61 | 1012.4 |
| 20260502215006 | 24 | 321 | 4.8 | 19.3 | 0.00 | 0.00 | 0.00 | 65 | 1012.6 |
| 20260502214007 | 23 | 282 | 11.3 | 22.5 | 0.00 | 0.00 | 0.00 | 60 | 1012.6 |
| 20260502213007 | 23 | 296 | 9.7 | 20.9 | 0.00 | 0.00 | 0.00 | 62 | 1012.7 |
| 20260502212006 | 23 | 293 | 6.4 | 16.1 | 0.00 | 0.00 | 0.00 | 59 | 1013.0 |
| 20260502211007 | 23 | 296 | 9.7 | 22.5 | 0.00 | 0.00 | 0.00 | 65 | 1013.0 |
| 20260502205006 | 22 | 292 | 12.9 | 19.3 | 0.00 | 0.00 | 0.00 | 60 | 1013.0 |
| 20260502204006 | 22 | 271 | 8.0 | 16.1 | 0.00 | 0.00 | 0.00 | 62 | 1013.2 |
| 20260502202006 | 22 | 265 | 16.1 | 29.0 | 0.00 | 0.00 | 0.00 | 61 | 1013.6 |
| 20260502201006 | 22 | 282 | 8.0 | 16.1 | 0.00 | 0.00 | 0.00 | 63 | 1013.6 |